Time;durP1;ratioP1;P1;durP2;ratioP2;P2;SDS_P1;SDS_P2;PMS_P1;PMS_P2;Temp;Humidity;BMP_temperature;BMP_pressure;BME280_temperature;BME280_humidity;BME280_pressure;Samples;Min_cycle;Max_cycle;Signal;HPM_P1;HPM_P2
2022/01/13 00:01:28;;;;;;;;;;;;;;;0.59;93.81;102845.66;4959350;28;1796;-88
2022/01/13 00:03:53;;;;;;;;;;;;;;;0.64;93.70;102837.94;4958435;28;1717;-88
2022/01/13 00:06:18;;;;;;;;;;;;;;;0.59;93.72;102837.56;4971930;28;1740;-87
2022/01/13 00:08:43;;;;;;;;;;;;;;;0.58;93.91;102840.41;4974488;28;1069;-87
2022/01/13 00:11:08;;;;;;;;;;;;;;;0.60;93.85;102833.84;4966427;28;1678;-87
2022/01/13 00:13:47;;;;;;;;;;;;;;;0.62;93.85;102836.38;4975862;28;1693;-87
2022/01/13 00:16:38;;;;;;;;;;;;;;;0.69;93.78;102841.00;4986657;28;1637;-87
2022/01/13 00:19:20;;;;;;;;;;;;;;;0.70;93.75;102836.44;4976815;28;1529;-87
2022/01/13 00:21:58;;;;;;;;;;;;;;;0.65;93.91;102833.38;4972104;28;1661;-87
2022/01/13 00:24:23;;;;;;;;;;;;;;;0.68;93.92;102833.91;4961212;28;1614;-87
2022/01/13 00:26:48;;;;;;;;;;;;;;;0.72;93.94;102835.28;4959496;28;1617;-87
2022/01/13 00:29:20;;;;;;;;;;;;;;;0.74;94.00;102835.97;4978414;28;1708;-88
2022/01/13 00:31:45;;;;;;;;;;;;;;;0.78;93.89;102833.78;4963228;28;1587;-88
2022/01/13 00:34:10;;;;;;;;;;;;;;;0.79;94.03;102835.50;4957590;28;1961;-87
2022/01/13 00:36:37;;;;;;;;;;;;;;;0.82;93.99;102840.56;4967356;28;1567;-88
2022/01/13 00:39:04;;;;;;;;;;;;;;;0.90;94.00;102837.09;4994099;28;1375;-88
2022/01/13 00:41:29;;;;;;;;;;;;;;;0.91;94.01;102830.69;4964325;28;1590;-86
2022/01/13 00:43:56;;;;;;;;;;;;;;;0.88;93.93;102828.31;4960288;28;1563;-87
2022/01/13 00:46:23;;;;;;;;;;;;;;;0.89;93.94;102830.00;4976840;28;1319;-87
2022/01/13 00:48:49;;;;;;;;;;;;;;;0.88;94.16;102825.59;4973018;28;1743;-87
2022/01/13 00:51:15;;;;;;;;;;;;;;;0.93;94.17;102832.22;4963245;28;1421;-87
2022/01/13 00:53:40;;;;;;;;;;;;;;;0.80;94.04;102814.78;4988200;28;1621;-88
2022/01/13 00:56:05;;;;;;;;;;;;;;;0.94;94.18;102828.50;4970408;28;1970;-88
2022/01/13 00:58:32;;;;;;;;;;;;;;;0.94;94.27;102841.13;4968688;28;1178;-87
2022/01/13 01:00:58;;;;;;;;;;;;;;;0.90;94.10;102840.63;4967005;28;1812;-87
2022/01/13 01:03:24;;;;;;;;;;;;;;;0.94;94.13;102849.22;4975904;28;1462;-87
2022/01/13 01:05:49;;;;;;;;;;;;;;;0.93;94.19;102848.41;4973251;28;1541;-87
2022/01/13 01:08:15;;;;;;;;;;;;;;;0.96;94.18;102848.06;4974286;28;1426;-87
2022/01/13 01:10:42;;;;;;;;;;;;;;;0.95;94.31;102842.81;4961667;28;1360;-87
2022/01/13 01:13:12;;;;;;;;;;;;;;;0.94;94.17;102843.81;4967778;28;1454;-86
2022/01/13 01:15:45;;;;;;;;;;;;;;;0.90;94.28;102842.47;4971747;28;1875;-87
2022/01/13 01:18:26;;;;;;;;;;;;;;;0.86;94.34;102839.25;4988185;28;1728;-87
2022/01/13 01:21:17;;;;;;;;;;;;;;;0.82;94.45;102845.13;4961769;28;1792;-87
2022/01/13 01:23:57;;;;;;;;;;;;;;;0.72;94.59;102843.38;4979154;28;1874;-87
2022/01/13 01:29:05;;;;;;;;;;;;;;;0.63;94.57;102841.63;4991727;28;1500;-86
2022/01/13 01:31:33;;;;;;;;;;;;;;;0.51;94.64;102844.75;4972767;28;1629;-85
2022/01/13 01:34:24;;;;;;;;;;;;;;;0.53;94.74;102842.72;4962223;28;1952;-86
2022/01/13 01:36:49;;;;;;;;;;;;;;;0.60;94.67;102841.94;4967095;28;1511;-87
2022/01/13 01:39:15;;;;;;;;;;;;;;;0.50;94.64;102830.44;4957360;28;1376;-86
2022/01/13 01:41:41;;;;;;;;;;;;;;;0.57;94.78;102838.72;4985465;28;1895;-87
2022/01/13 01:44:10;;;;;;;;;;;;;;;0.63;94.55;102840.78;4966768;28;1556;-86
2022/01/13 01:46:37;;;;;;;;;;;;;;;0.66;94.59;102840.47;4981019;28;1673;-87
2022/01/13 01:49:08;;;;;;;;;;;;;;;0.67;94.53;102845.72;4956883;28;1359;-86
2022/01/13 01:51:33;;;;;;;;;;;;;;;0.66;94.52;102844.03;4964495;28;1530;-87
2022/01/13 01:53:58;;;;;;;;;;;;;;;0.65;94.38;102846.88;4986239;28;1894;-87
2022/01/13 01:56:23;;;;;;;;;;;;;;;0.67;94.44;102847.56;4981615;28;1375;-87
2022/01/13 01:58:48;;;;;;;;;;;;;;;0.67;94.39;102848.41;4975123;28;1694;-88
2022/01/13 02:01:13;;;;;;;;;;;;;;;0.66;94.42;102848.56;4969416;28;1450;-87
2022/01/13 02:03:39;;;;;;;;;;;;;;;0.59;94.56;102850.19;4972747;28;1736;-87
2022/01/13 02:06:04;;;;;;;;;;;;;;;0.60;94.62;102852.72;4977136;28;1603;-88
2022/01/13 02:08:30;;;;;;;;;;;;;;;0.64;94.45;102842.47;4993666;28;1045;-87
2022/01/13 02:10:55;;;;;;;;;;;;;;;0.65;94.46;102833.38;4972694;28;1309;-87
2022/01/13 02:13:23;;;;;;;;;;;;;;;0.66;94.47;102830.53;4973903;28;1423;-88
2022/01/13 02:16:01;;;;;;;;;;;;;;;0.67;94.50;102812.53;4972433;28;1945;-88
2022/01/13 02:18:28;;;;;;;;;;;;;;;0.69;94.42;102818.56;4957058;28;1325;-88
2022/01/13 02:20:54;;;;;;;;;;;;;;;0.72;94.51;102820.97;4968826;28;1312;-88
2022/01/13 02:23:36;;;;;;;;;;;;;;;0.69;94.53;102819.41;4968884;28;1500;-87
2022/01/13 02:26:02;;;;;;;;;;;;;;;0.71;94.40;102820.13;4966888;28;1379;-87
2022/01/13 02:28:27;;;;;;;;;;;;;;;0.64;94.54;102812.84;4991746;28;1367;-88
2022/01/13 02:30:53;;;;;;;;;;;;;;;0.65;94.56;102798.34;4960228;28;1740;-87
2022/01/13 02:33:18;;;;;;;;;;;;;;;0.72;94.66;102807.50;4962947;28;1356;-88
2022/01/13 02:35:43;;;;;;;;;;;;;;;0.73;94.71;102804.63;4977329;28;1890;-88
2022/01/13 02:38:10;;;;;;;;;;;;;;;0.72;94.69;102802.94;4975037;28;1933;-88
2022/01/13 02:40:35;;;;;;;;;;;;;;;0.71;94.63;102805.78;4962995;28;1214;-87
2022/01/13 02:43:00;;;;;;;;;;;;;;;0.66;94.67;102802.75;4970939;28;1417;-87
2022/01/13 02:45:32;;;;;;;;;;;;;;;0.70;94.81;102807.66;4974505;28;1041;-87
2022/01/13 02:50:25;;;;;;;;;;;;;;;0.70;94.71;102799.56;4977197;28;1466;-86
2022/01/13 02:52:51;;;;;;;;;;;;;;;0.75;94.82;102799.09;4959932;28;1530;-86
2022/01/13 02:55:16;;;;;;;;;;;;;;;0.77;94.65;102800.59;4986462;28;1910;-87
2022/01/13 02:57:41;;;;;;;;;;;;;;;0.77;94.64;102788.97;4960035;28;1220;-87
2022/01/13 03:00:07;;;;;;;;;;;;;;;0.63;94.85;102794.97;4971970;28;1360;-87
2022/01/13 03:02:32;;;;;;;;;;;;;;;0.69;94.81;102794.31;4977686;28;1682;-87
2022/01/13 03:04:58;;;;;;;;;;;;;;;0.77;94.81;102799.75;4985861;28;1678;-86
2022/01/13 03:07:25;;;;;;;;;;;;;;;0.80;94.77;102795.91;4998593;28;1284;-87
2022/01/13 03:09:50;;;;;;;;;;;;;;;0.80;94.79;102794.06;5010237;28;1437;-87
2022/01/13 03:12:16;;;;;;;;;;;;;;;0.80;94.95;102788.66;4992699;28;1306;-86
2022/01/13 03:14:41;;;;;;;;;;;;;;;0.82;94.91;102791.22;4975869;28;1934;-87
2022/01/13 03:17:06;;;;;;;;;;;;;;;0.77;94.93;102794.38;4959569;28;1681;-87
2022/01/13 03:19:32;;;;;;;;;;;;;;;0.79;94.91;102786.13;4969914;28;1598;-86
2022/01/13 03:21:57;;;;;;;;;;;;;;;0.77;94.96;102795.22;4968967;28;1602;-87
2022/01/13 03:24:22;;;;;;;;;;;;;;;0.84;95.01;102792.75;4975251;28;1567;-87
2022/01/13 05:46:05;;;;;;;;;;;;;;;1.19;94.17;102748.56;667576;23;2651;-95
2022/01/13 05:48:34;;;;;;;;;;;;;;;1.19;94.27;102753.13;4969102;28;1588;-89
2022/01/13 05:50:59;;;;;;;;;;;;;;;1.18;94.31;102756.81;4938795;29;1438;-90
2022/01/13 05:56:28;;;;;;;;;;;;;;;1.19;94.35;102756.66;4956102;28;1979;-89
2022/01/13 05:58:55;;;;;;;;;;;;;;;1.20;94.07;102752.09;4938854;29;1551;-89
2022/01/13 06:01:20;;;;;;;;;;;;;;;1.25;94.01;102752.44;4938963;29;1366;-88
2022/01/13 06:03:45;;;;;;;;;;;;;;;1.31;94.20;102741.00;4930521;29;1286;-89
2022/01/13 06:06:10;;;;;;;;;;;;;;;1.33;94.30;102747.06;4933022;29;1325;-88
2022/01/13 06:08:36;;;;;;;;;;;;;;;1.31;94.17;102749.94;4939955;29;1364;-87
2022/01/13 06:11:01;;;;;;;;;;;;;;;1.33;94.01;102749.78;4940899;29;1399;-90
2022/01/13 06:13:26;;;;;;;;;;;;;;;1.33;94.22;102755.16;4936900;29;1336;-88
2022/01/13 06:15:51;;;;;;;;;;;;;;;1.29;94.02;102754.63;4942048;29;1953;-88
2022/01/13 06:18:16;;;;;;;;;;;;;;;1.31;94.19;102757.19;4942337;29;1028;-89
2022/01/13 06:20:42;;;;;;;;;;;;;;;1.30;93.91;102758.19;4942518;29;1038;-91
2022/01/13 06:23:07;;;;;;;;;;;;;;;1.28;93.89;102769.13;4941799;29;1186;-90
2022/01/13 06:25:33;;;;;;;;;;;;;;;1.32;94.15;102766.97;4941838;29;1233;-90
2022/01/13 06:27:58;;;;;;;;;;;;;;;1.29;93.83;102768.13;4942248;29;1309;-90
2022/01/13 06:30:32;;;;;;;;;;;;;;;1.29;93.94;102767.28;4945754;29;1258;-90
2022/01/13 06:32:57;;;;;;;;;;;;;;;1.26;93.95;102767.63;4946196;29;1282;-90
2022/01/13 06:35:22;;;;;;;;;;;;;;;1.26;93.99;102756.84;4942028;29;1890;-89
2022/01/13 06:37:47;;;;;;;;;;;;;;;1.23;94.03;102755.31;4942412;29;1286;-90
2022/01/13 06:40:13;;;;;;;;;;;;;;;1.25;94.07;102763.25;4941855;29;991;-90
2022/01/13 06:42:38;;;;;;;;;;;;;;;1.25;94.07;102753.28;4942130;29;1352;-90
2022/01/13 06:45:05;;;;;;;;;;;;;;;1.28;94.15;102761.03;4943426;29;1218;-90
2022/01/13 06:47:30;;;;;;;;;;;;;;;1.31;94.13;102751.78;4953145;29;1281;-91
2022/01/13 06:49:55;;;;;;;;;;;;;;;1.30;94.13;102752.78;4959589;29;1321;-90
2022/01/13 06:52:20;;;;;;;;;;;;;;;1.27;94.18;102750.44;4958423;29;1065;-90
2022/01/13 06:54:45;;;;;;;;;;;;;;;1.26;94.34;102756.84;4957517;29;1957;-90
2022/01/13 06:57:10;;;;;;;;;;;;;;;1.27;93.97;102754.00;4957117;29;1221;-90
2022/01/13 06:59:36;;;;;;;;;;;;;;;1.28;94.14;102760.19;4957172;29;1177;-90
2022/01/13 07:02:01;;;;;;;;;;;;;;;1.30;94.01;102755.50;4956962;29;1217;-90
2022/01/13 07:04:27;;;;;;;;;;;;;;;1.32;94.14;102762.41;4956998;29;1332;-90
2022/01/13 07:06:53;;;;;;;;;;;;;;;1.29;94.26;102762.72;4956854;29;1270;-90
2022/01/13 07:09:18;;;;;;;;;;;;;;;1.28;94.13;102760.19;4957011;29;1223;-90
2022/01/13 07:11:44;;;;;;;;;;;;;;;1.28;94.15;102762.91;4955851;28;1325;-91
2022/01/13 07:14:09;;;;;;;;;;;;;;;1.30;94.33;102758.19;4957261;29;1965;-90
2022/01/13 07:16:35;;;;;;;;;;;;;;;1.37;94.21;102759.22;4956783;29;1249;-90
2022/01/13 07:19:01;;;;;;;;;;;;;;;1.40;94.56;102761.59;4956913;29;1174;-90
2022/01/13 07:21:27;;;;;;;;;;;;;;;1.39;94.26;102762.59;4956746;29;1266;-90
2022/01/13 07:23:53;;;;;;;;;;;;;;;1.40;94.31;102772.38;4957105;29;1245;-90
2022/01/13 07:26:18;;;;;;;;;;;;;;;1.37;94.02;102770.84;4956550;29;1292;-90
2022/01/13 07:28:43;;;;;;;;;;;;;;;1.35;94.39;102777.44;4956645;29;1340;-90
2022/01/13 07:31:08;;;;;;;;;;;;;;;1.35;94.23;102769.34;4956790;29;1229;-90
2022/01/13 07:33:34;;;;;;;;;;;;;;;1.36;94.06;102771.03;4956562;29;1532;-90
2022/01/13 07:35:59;;;;;;;;;;;;;;;1.37;94.17;102768.16;4956442;29;1887;-90
2022/01/13 07:38:24;;;;;;;;;;;;;;;1.36;94.10;102774.56;4956362;29;1198;-91
2022/01/13 07:40:50;;;;;;;;;;;;;;;1.34;94.24;102768.50;4956388;29;1234;-91
2022/01/13 07:43:21;;;;;;;;;;;;;;;1.32;94.28;102766.97;4956370;29;1214;-90
2022/01/13 07:45:47;;;;;;;;;;;;;;;1.31;94.20;102776.06;4956411;29;1278;-90
2022/01/13 07:48:12;;;;;;;;;;;;;;;1.31;94.03;102778.75;4956252;29;1284;-91
2022/01/13 07:50:37;;;;;;;;;;;;;;;1.35;93.90;102786.38;4956453;29;1054;-90
2022/01/13 07:53:02;;;;;;;;;;;;;;;1.34;94.36;102784.69;4956085;29;1194;-90
2022/01/13 07:55:27;;;;;;;;;;;;;;;1.36;94.25;102785.34;4956331;29;1902;-91
2022/01/13 07:57:52;;;;;;;;;;;;;;;1.36;94.35;102793.44;4955932;29;1218;-90
2022/01/13 08:00:17;;;;;;;;;;;;;;;1.37;94.06;102797.00;4956501;29;998;-91
2022/01/13 08:02:43;;;;;;;;;;;;;;;1.36;94.20;102796.13;4956147;29;1270;-90
2022/01/13 08:05:08;;;;;;;;;;;;;;;1.37;94.13;102807.78;4956032;29;1179;-90
2022/01/13 08:07:34;;;;;;;;;;;;;;;1.40;94.24;102807.47;4955997;29;1202;-90
2022/01/13 08:09:59;;;;;;;;;;;;;;;1.41;94.06;102798.38;4956141;29;1220;-91
2022/01/13 08:12:24;;;;;;;;;;;;;;;1.40;94.04;102818.25;4955971;29;802;-90
2022/01/13 08:14:50;;;;;;;;;;;;;;;1.36;94.37;102814.22;4955631;29;1956;-91
2022/01/13 08:19:45;;;;;;;;;;;;;;;1.35;94.14;102828.72;4955939;29;1226;-90
2022/01/13 08:20:04;;;;;;;;;;;;;;;1.35;94.31;102820.63;4956779;29;1084;-90
2022/01/13 08:22:29;;;;;;;;;;;;;;;1.40;94.02;102816.41;4955290;28;1333;-90
2022/01/13 08:24:54;;;;;;;;;;;;;;;1.46;94.10;102825.69;4955811;29;1073;-90
2022/01/13 08:27:19;;;;;;;;;;;;;;;1.44;94.23;102830.44;4955645;29;1198;-90
2022/01/13 08:29:44;;;;;;;;;;;;;;;1.46;94.06;102825.69;4955793;29;914;-91
2022/01/13 08:32:10;;;;;;;;;;;;;;;1.44;94.05;102830.44;4955857;29;1089;-90
2022/01/13 08:34:35;;;;;;;;;;;;;;;1.45;94.04;102830.25;4955437;29;1991;-90
2022/01/13 08:37:00;;;;;;;;;;;;;;;1.41;94.25;102826.19;4955981;29;1343;-90
2022/01/13 08:39:25;;;;;;;;;;;;;;;1.43;93.75;102828.72;4955500;29;991;-90
2022/01/13 08:41:50;;;;;;;;;;;;;;;1.45;94.24;102832.09;4955706;29;790;-89
2022/01/13 08:44:16;;;;;;;;;;;;;;;1.50;93.92;102830.63;4955229;29;1182;-90
2022/01/13 08:46:41;;;;;;;;;;;;;;;1.52;93.90;102835.84;4954996;29;1368;-90
2022/01/13 08:49:06;;;;;;;;;;;;;;;1.52;94.19;102835.84;4955318;29;986;-89
2022/01/13 08:51:31;;;;;;;;;;;;;;;1.52;93.54;102825.06;4955264;29;1097;-90
2022/01/13 08:53:57;;;;;;;;;;;;;;;1.51;94.11;102828.75;4955119;29;1308;-91
2022/01/13 08:56:22;;;;;;;;;;;;;;;1.49;93.77;102834.31;4955122;29;1977;-90
2022/01/13 08:58:47;;;;;;;;;;;;;;;1.50;94.08;102829.75;4955262;29;1329;-91
2022/01/13 09:01:13;;;;;;;;;;;;;;;1.54;93.67;102836.50;4955131;29;1344;-90
2022/01/13 09:03:38;;;;;;;;;;;;;;;1.62;93.69;102832.97;4954656;29;1362;-91
2022/01/13 09:06:03;;;;;;;;;;;;;;;1.62;93.85;102838.38;4954569;29;1213;-90
2022/01/13 09:08:29;;;;;;;;;;;;;;;1.61;93.82;102829.47;4954530;29;1246;-90
2022/01/13 09:10:54;;;;;;;;;;;;;;;1.57;93.56;102835.34;4954742;29;1470;-90
2022/01/13 09:13:19;;;;;;;;;;;;;;;1.58;93.85;102845.97;4954402;29;1281;-90
2022/01/13 09:15:52;;;;;;;;;;;;;;;1.61;93.72;102839.41;4954634;29;1898;-90
2022/01/13 09:18:29;;;;;;;;;;;;;;;1.63;93.89;102837.38;4954402;29;1260;-90
2022/01/13 09:20:55;;;;;;;;;;;;;;;1.64;93.84;102837.22;4954447;29;1262;-91
2022/01/13 09:23:20;;;;;;;;;;;;;;;1.70;93.71;102835.72;4954348;29;1273;-90
2022/01/13 09:25:45;;;;;;;;;;;;;;;1.74;93.79;102845.19;4954196;29;1211;-91
2022/01/13 09:28:11;;;;;;;;;;;;;;;1.73;93.56;102843.47;4982000;23;1879;-88
2022/01/13 09:30:36;;;;;;;;;;;;;;;1.71;93.47;102848.19;4957203;28;1308;-87
2022/01/13 09:33:01;;;;;;;;;;;;;;;1.72;93.63;102848.03;4957058;28;1301;-87
2022/01/13 09:35:26;;;;;;;;;;;;;;;1.68;93.98;102849.38;4958052;28;1995;-87
2022/01/13 09:37:52;;;;;;;;;;;;;;;1.70;93.67;102835.72;4977895;28;2006;-87
2022/01/13 09:40:17;;;;;;;;;;;;;;;1.73;93.52;102844.34;4961168;28;1209;-87
2022/01/13 09:42:43;;;;;;;;;;;;;;;1.75;93.45;102844.16;4960839;28;1226;-87
2022/01/13 09:45:09;;;;;;;;;;;;;;;1.79;93.70;102843.66;4978417;28;1068;-87
2022/01/13 09:47:35;;;;;;;;;;;;;;;1.86;93.50;102851.97;4978363;28;1221;-87
2022/01/13 09:50:01;;;;;;;;;;;;;;;1.81;93.76;102849.75;4960901;28;1271;-88
2022/01/13 09:52:27;;;;;;;;;;;;;;;1.83;93.39;102852.28;4960670;28;1214;-87
2022/01/13 09:54:52;;;;;;;;;;;;;;;1.88;93.38;102852.63;4960837;28;1890;-87
2022/01/13 09:57:17;;;;;;;;;;;;;;;1.90;93.59;102846.06;4978050;28;1218;-87
2022/01/13 09:59:42;;;;;;;;;;;;;;;1.88;93.40;102848.06;4978297;28;887;-87
2022/01/13 10:02:07;;;;;;;;;;;;;;;1.89;93.79;102838.13;4957489;28;1436;-88
2022/01/13 10:04:49;;;;;;;;;;;;;;;1.95;93.63;102839.31;4960869;28;1320;-88
2022/01/13 10:07:28;;;;;;;;;;;;;;;1.98;93.68;102837.13;4978192;28;1423;-87
2022/01/13 10:09:54;;;;;;;;;;;;;;;2.01;93.83;102839.50;4977979;28;979;-88
2022/01/13 10:12:27;;;;;;;;;;;;;;;2.05;93.64;102829.19;4960547;28;1316;-87
2022/01/13 10:17:29;;;;;;;;;;;;;;;2.04;93.83;102831.03;4978101;28;1312;-87
2022/01/13 10:19:57;;;;;;;;;;;;;;;2.03;93.64;102834.78;4960432;28;1219;-88
2022/01/13 10:22:23;;;;;;;;;;;;;;;2.01;93.77;102834.09;4960241;28;1510;-87
2022/01/13 10:24:53;;;;;;;;;;;;;;;2.04;93.56;102835.63;4977837;28;804;-87
2022/01/13 10:27:35;;;;;;;;;;;;;;;2.04;93.65;102832.94;4966376;28;1296;-87
2022/01/13 10:30:04;;;;;;;;;;;;;;;2.05;93.80;102823.78;4976728;28;1418;-87
2022/01/13 10:32:33;;;;;;;;;;;;;;;2.02;93.50;102830.38;4977312;28;1015;-87
2022/01/13 10:35:00;;;;;;;;;;;;;;;2.02;93.64;102824.13;4976155;28;1944;-88
2022/01/13 10:37:30;;;;;;;;;;;;;;;2.00;93.60;102832.41;4976257;28;1329;-87
2022/01/13 10:39:57;;;;;;;;;;;;;;;1.96;93.69;102835.63;4976533;28;1331;-87
2022/01/13 10:45:01;;;;;;;;;;;;;;;2.01;93.80;102823.28;4977353;28;777;-88
2022/01/13 10:47:27;;;;;;;;;;;;;;;1.98;93.50;102817.38;4976062;28;1202;-88
2022/01/13 10:49:52;;;;;;;;;;;;;;;1.94;93.62;102821.44;4977438;28;875;-87
2022/01/13 10:52:18;;;;;;;;;;;;;;;1.93;93.15;102823.28;4977249;28;1001;-88
2022/01/13 10:54:43;;;;;;;;;;;;;;;1.91;93.37;102814.50;4975852;28;1953;-87
2022/01/13 10:57:18;;;;;;;;;;;;;;;1.95;93.28;102807.75;4976166;28;1296;-88
2022/01/13 10:59:44;;;;;;;;;;;;;;;1.99;93.17;102809.09;4975884;28;1375;-87
2022/01/13 11:02:10;;;;;;;;;;;;;;;2.01;93.16;102806.25;4975782;28;1311;-87
2022/01/13 11:04:35;;;;;;;;;;;;;;;2.03;92.93;102806.91;4977270;28;800;-87
2022/01/13 11:07:14;;;;;;;;;;;;;;;2.05;92.58;102811.13;4975813;28;1296;-87
2022/01/13 11:09:42;;;;;;;;;;;;;;;2.01;92.83;102807.09;4977067;28;867;-88
2022/01/13 11:12:09;;;;;;;;;;;;;;;2.05;92.45;102812.97;4976804;28;863;-87
2022/01/13 11:14:40;;;;;;;;;;;;;;;2.11;92.86;102812.31;4975803;28;1898;-88
2022/01/13 11:17:06;;;;;;;;;;;;;;;2.14;92.29;102806.56;4975784;28;1523;-88
2022/01/13 11:19:32;;;;;;;;;;;;;;;2.21;92.06;102808.41;4975708;28;1309;-87
2022/01/13 11:21:57;;;;;;;;;;;;;;;2.21;92.19;102803.03;4975579;28;1256;-87
2022/01/13 11:24:23;;;;;;;;;;;;;;;2.26;91.88;102794.41;4975921;28;990;-88
2022/01/13 11:26:49;;;;;;;;;;;;;;;2.27;91.75;102786.16;4976635;28;1176;-87
2022/01/13 11:29:16;;;;;;;;;;;;;;;2.30;92.24;102787.66;4959640;28;1282;-87
2022/01/13 11:31:41;;;;;;;;;;;;;;;2.34;91.59;102786.31;4959093;28;1360;-87
2022/01/13 11:34:07;;;;;;;;;;;;;;;2.34;91.50;102786.31;4959518;28;1345;-87
2022/01/13 11:36:32;;;;;;;;;;;;;;;2.40;91.39;102777.50;4959179;28;1969;-88
2022/01/13 11:38:59;;;;;;;;;;;;;;;2.48;91.42;102774.78;4976776;28;938;-87
2022/01/13 11:41:24;;;;;;;;;;;;;;;2.55;91.51;102773.09;4959123;28;1209;-88
2022/01/13 11:43:50;;;;;;;;;;;;;;;2.57;90.78;102770.22;4976560;28;1080;-88
2022/01/13 11:46:19;;;;;;;;;;;;;;;2.57;90.90;102767.50;4959021;28;1307;-87
2022/01/13 11:49:05;;;;;;;;;;;;;;;2.62;91.06;102757.88;4976303;28;819;-87
2022/01/13 11:51:56;;;;;;;;;;;;;;;2.65;90.34;102746.69;4958885;28;1416;-88
2022/01/13 11:54:24;;;;;;;;;;;;;;;2.65;90.42;102743.16;4959103;28;2059;-87
2022/01/13 11:57:08;;;;;;;;;;;;;;;2.70;90.37;102743.50;4958350;28;1929;-87
2022/01/13 11:59:34;;;;;;;;;;;;;;;2.71;90.20;102742.47;4950010;28;1678;-88
2022/01/13 12:02:19;;;;;;;;;;;;;;;2.64;89.98;102742.31;4957453;28;1392;-87
2022/01/13 12:05:01;;;;;;;;;;;;;;;2.60;89.83;102732.88;4939491;29;1219;-87
2022/01/13 12:07:36;;;;;;;;;;;;;;;2.56;89.81;102727.97;4957344;29;1209;-87
2022/01/13 12:10:03;;;;;;;;;;;;;;;2.54;89.42;102722.75;4955752;29;1178;-87
2022/01/13 12:12:29;;;;;;;;;;;;;;;2.59;89.79;102719.53;4956435;29;1089;-88
2022/01/13 12:15:12;;;;;;;;;;;;;;;2.62;89.63;102717.31;4939613;29;1966;-87
2022/01/13 12:17:48;;;;;;;;;;;;;;;2.67;89.12;102714.94;4956873;29;1317;-87
2022/01/13 12:23:30;;;;;;;;;;;;;;;2.76;89.17;102702.22;4941076;29;1436;-88
2022/01/13 12:25:55;;;;;;;;;;;;;;;2.75;88.84;102697.84;4939464;29;1180;-87
2022/01/13 12:28:20;;;;;;;;;;;;;;;2.80;89.02;102700.03;4953483;29;1284;-87
2022/01/13 12:30:46;;;;;;;;;;;;;;;2.82;89.03;102697.97;4955418;29;1173;-87
2022/01/13 12:33:12;;;;;;;;;;;;;;;2.86;89.09;102696.63;4955091;29;1225;-87
2022/01/13 12:35:37;;;;;;;;;;;;;;;2.88;89.35;102686.47;4955220;29;1902;-88
2022/01/13 12:38:05;;;;;;;;;;;;;;;2.95;89.21;102682.88;4955459;29;1206;-87
2022/01/13 12:40:34;;;;;;;;;;;;;;;2.99;89.15;102675.22;4955133;29;1326;-87
2022/01/13 12:43:11;;;;;;;;;;;;;;;2.98;88.92;102665.44;4954998;29;1296;-88
2022/01/13 12:45:36;;;;;;;;;;;;;;;3.01;89.10;102659.66;4971121;28;1198;-88
2022/01/13 12:48:06;;;;;;;;;;;;;;;3.03;89.16;102653.06;4955528;28;1253;-87
2022/01/13 12:50:34;;;;;;;;;;;;;;;3.08;89.29;102648.97;4955061;29;1193;-87
2022/01/13 12:53:08;;;;;;;;;;;;;;;3.11;89.40;102657.59;4954589;29;1193;-88
2022/01/13 12:55:35;;;;;;;;;;;;;;;3.20;89.29;102655.66;4954838;29;1891;-87
2022/01/13 12:58:00;;;;;;;;;;;;;;;3.18;89.14;102645.03;4971195;28;1186;-88
2022/01/13 13:00:25;;;;;;;;;;;;;;;3.19;88.98;102641.28;4955859;29;871;-88
2022/01/13 13:02:58;;;;;;;;;;;;;;;3.31;88.91;102645.28;4954765;29;1250;-88
2022/01/13 13:05:30;;;;;;;;;;;;;;;3.58;88.34;102633.03;4956093;29;1018;-88
2022/01/13 13:07:55;;;;;;;;;;;;;;;3.71;87.76;102640.56;4954641;28;1300;-87
2022/01/13 13:10:20;;;;;;;;;;;;;;;3.78;87.68;102631.50;4970818;28;1304;-88
2022/01/13 13:12:55;;;;;;;;;;;;;;;4.68;86.41;102628.63;4955885;29;1009;-87
2022/01/13 13:17:50;;;;;;;;;;;;;;;4.87;83.93;102629.91;4956094;29;1196;-88
2022/01/13 13:20:27;;;;;;;;;;;;;;;4.49;84.88;102624.66;4954966;29;1339;-87
2022/01/13 13:22:54;;;;;;;;;;;;;;;4.22;85.34;102624.47;4956341;29;974;-87
2022/01/13 13:25:37;;;;;;;;;;;;;;;3.88;86.04;102623.13;4954934;29;1193;-88
2022/01/13 13:28:21;;;;;;;;;;;;;;;3.64;86.53;102621.50;4957216;29;1202;-87
2022/01/13 13:30:47;;;;;;;;;;;;;;;3.50;87.06;102616.84;4939669;29;1187;-87
2022/01/13 13:33:12;;;;;;;;;;;;;;;3.46;86.99;102617.41;4956331;29;906;-87
2022/01/13 13:35:37;;;;;;;;;;;;;;;3.49;87.22;102628.72;4943620;29;1899;-87
2022/01/13 13:38:02;;;;;;;;;;;;;;;3.60;87.17;102625.56;4972075;29;1333;-86
2022/01/13 13:40:27;;;;;;;;;;;;;;;3.75;86.79;102628.31;4956382;29;1030;-88
2022/01/13 13:43:03;;;;;;;;;;;;;;;3.86;86.45;102619.75;4970571;29;1313;-87
2022/01/13 13:45:29;;;;;;;;;;;;;;;3.84;86.33;102623.66;4939147;29;1238;-87
2022/01/13 13:47:54;;;;;;;;;;;;;;;3.98;86.09;102623.69;4955396;29;1294;-87
2022/01/13 13:50:20;;;;;;;;;;;;;;;5.19;84.21;102623.19;4955255;29;977;-87
2022/01/13 13:52:46;;;;;;;;;;;;;;;6.78;79.79;102612.41;4954959;29;1061;-88
2022/01/13 13:55:11;;;;;;;;;;;;;;;8.26;75.46;102617.50;4947463;28;1948;-88
2022/01/13 13:57:39;;;;;;;;;;;;;;;7.54;75.84;102607.53;4957037;28;1308;-86
2022/01/13 14:00:08;;;;;;;;;;;;;;;5.88;79.14;102610.63;4952086;28;1379;-83
2022/01/13 14:02:37;;;;;;;;;;;;;;;4.82;81.54;102611.50;4963201;28;1375;-87
2022/01/13 14:05:07;;;;;;;;;;;;;;;4.30;82.72;102614.38;4956475;28;1352;-87
2022/01/13 14:07:42;;;;;;;;;;;;;;;4.08;84.06;102609.88;4957375;28;1344;-86
2022/01/13 14:10:15;;;;;;;;;;;;;;;3.96;83.71;102606.78;4974528;28;1613;-89
2022/01/13 14:12:46;;;;;;;;;;;;;;;3.86;84.19;102594.53;4943654;29;1780;-87
2022/01/13 14:15:19;;;;;;;;;;;;;;;3.84;84.42;102592.00;4951811;28;1895;-87
2022/01/13 14:17:45;;;;;;;;;;;;;;;4.00;84.24;102596.41;4957168;28;1399;-87
2022/01/13 14:20:12;;;;;;;;;;;;;;;3.84;84.25;102593.88;4956177;28;1677;-87
2022/01/13 14:22:37;;;;;;;;;;;;;;;3.65;84.62;102589.84;4949229;28;1617;-87
2022/01/13 14:25:07;;;;;;;;;;;;;;;3.45;84.98;102592.22;4948502;28;1398;-88
2022/01/13 14:27:33;;;;;;;;;;;;;;;3.40;85.45;102590.03;4950269;28;1519;-87
2022/01/13 14:29:58;;;;;;;;;;;;;;;3.39;85.64;102585.66;4976745;28;1891;-88
2022/01/13 14:32:26;;;;;;;;;;;;;;;3.35;85.25;102584.34;4977162;28;1453;-88
2022/01/13 14:34:52;;;;;;;;;;;;;;;3.31;85.72;102593.00;4969222;28;1894;-88
2022/01/13 14:37:21;;;;;;;;;;;;;;;3.26;85.93;102588.13;4975846;28;1351;-88
2022/01/13 14:40:06;;;;;;;;;;;;;;;3.20;85.79;102585.31;4976184;28;1225;-89
2022/01/13 14:42:31;;;;;;;;;;;;;;;3.19;86.41;102587.19;4974331;28;1366;-88
2022/01/13 14:45:15;;;;;;;;;;;;;;;3.15;86.17;102585.84;4977554;28;1323;-88
2022/01/13 14:47:40;;;;;;;;;;;;;;;3.09;86.46;102591.13;4971122;28;1669;-87
2022/01/13 14:50:07;;;;;;;;;;;;;;;3.04;86.96;102578.16;4969493;28;1213;-90
2022/01/13 14:52:32;;;;;;;;;;;;;;;3.06;87.00;102581.53;4972207;28;1468;-88
2022/01/13 14:54:57;;;;;;;;;;;;;;;3.03;87.03;102584.59;4975974;28;1902;-89
2022/01/13 14:57:23;;;;;;;;;;;;;;;2.99;86.68;102575.97;4972050;28;1443;-90
2022/01/13 14:59:48;;;;;;;;;;;;;;;3.00;87.23;102576.81;4976135;28;1361;-89
2022/01/13 15:02:15;;;;;;;;;;;;;;;2.94;86.92;102580.25;4975181;28;1379;-88
2022/01/13 15:04:40;;;;;;;;;;;;;;;2.89;87.11;102574.56;4971914;28;1471;-90
2022/01/13 15:07:05;;;;;;;;;;;;;;;2.86;87.44;102573.03;4974276;28;1330;-90
2022/01/13 15:09:31;;;;;;;;;;;;;;;2.83;87.17;102575.25;4976231;28;1041;-90
2022/01/13 15:11:57;;;;;;;;;;;;;;;2.77;87.37;102576.81;4977246;28;1372;-90
2022/01/13 15:14:22;;;;;;;;;;;;;;;2.76;88.03;102567.00;4976325;28;1329;-90
2022/01/13 15:16:47;;;;;;;;;;;;;;;2.75;87.50;102572.59;4976514;28;1899;-89
2022/01/13 15:19:15;;;;;;;;;;;;;;;2.72;88.17;102563.00;4976382;28;974;-88
2022/01/13 15:21:43;;;;;;;;;;;;;;;2.71;88.12;102572.13;4976583;28;1192;-90
2022/01/13 15:24:08;;;;;;;;;;;;;;;2.71;88.10;102574.84;4976472;28;1185;-90
2022/01/13 15:26:34;;;;;;;;;;;;;;;2.67;88.21;102573.50;4976349;28;1333;-89
2022/01/13 15:28:59;;;;;;;;;;;;;;;2.63;87.91;102570.31;4975850;28;1259;-89
2022/01/13 15:31:24;;;;;;;;;;;;;;;2.60;88.04;102570.66;4974994;28;1240;-90
2022/01/13 15:33:50;;;;;;;;;;;;;;;2.58;88.42;102571.84;4970161;28;1906;-89
2022/01/13 15:36:17;;;;;;;;;;;;;;;2.57;88.17;102571.00;4975136;28;1898;-89
2022/01/13 15:38:42;;;;;;;;;;;;;;;2.53;88.32;102575.09;4991357;28;1301;-90